Terminal Aerodrome Forecast
Issued by NWS

Home | Current Version | Previous Version | Text Only | Print | Product List | Glossary On
Versions: 1 2 3 4 5 6 7 8 9 10 11 12 13 14 15 16 17 18 19 20 21 22 23 24 25 26 27 28
000
FTUS41 KCTP 220559 RRB
TAFBFD
TAF
KBFD 220559Z 2206/2306 21004KT 1/2SM FG VV002
     FM221400 17005KT 2SM BR OVC007
     FM221800 18008KT P6SM FEW007 BKN015 OVC200
     FM222100 17006KT P6SM OVC050=

USA.gov is the U.S. government's official web portal to all federal, state and local government web resources and services.